Igloo — FAC2378 — position and weather

sailwx.info

Track history (hours):
 
Tides and Currents Weather Stations Pressure Air Temp Water Temp Dewpoint Dewpoint Depression Visibility Wind Speed Wind Dir Waves Ship Positions

Igloo

Last reported at 2017-Aug-29 06:24 UTC. Time now 2017-Sep-19 20:49 UTC.
Position N 45°33' W 000°58'.
Warning: this ship's position is 21 days out of date.

Length 12 m.

Type: Sailing vessel. MMSI: 227264430.

Date/timePositionNaut miles runAvg speedWind from/ knotsBaromVisibWave heightAir tempDewpointWater temp
2017-Aug-29 06:24N 45°33' W 000°58'3 8.0
2017-Aug-29 06:00N 45°36' W 001°01'1 2.5
2017-Aug-29 05:25N 45°37' W 001°01'0 0.0
2017-Aug-29 04:46N 45°37' W 001°01'0 0.0
2017-Aug-29 04:25N 45°37' W 001°01'0 0.0
2017-Aug-29 03:58N 45°37' W 001°01'0 0.0
2017-Aug-29 03:28N 45°37' W 001°01'0 0.0
2017-Aug-29 02:55N 45°37' W 001°01'0 0.0
2017-Aug-29 02:28N 45°37' W 001°01'0 0.0
2017-Aug-29 01:58N 45°37' W 001°01'0 0.0
2017-Aug-29 01:28N 45°37' W 001°01'0 0.0
2017-Aug-29 00:55N 45°37' W 001°01'0 0.0
2017-Aug-29 00:28N 45°37' W 001°01'0 0.0
2017-Aug-28 23:55N 45°37' W 001°01'0 0.0
2017-Aug-28 23:28N 45°37' W 001°01'0 0.0
2017-Aug-28 22:52N 45°37' W 001°01'0 0.0
2017-Aug-28 22:22N 45°37' W 001°01'0 0.0
2017-Aug-28 21:58N 45°37' W 001°01'0 0.0
2017-Aug-28 21:25N 45°37' W 001°01'0 0.0
2017-Aug-28 20:55N 45°37' W 001°01'0 0.0
2017-Aug-28 20:28N 45°37' W 001°01'0 0.0
2017-Aug-28 19:40N 45°37' W 001°01'0 0.0
2017-Aug-28 19:16N 45°37' W 001°01'0 0.0
2017-Aug-28 18:58N 45°37' W 001°01'0 0.0
2017-Aug-28 18:25N 45°37' W 001°01'0 0.0
2017-Aug-28 17:58N 45°37' W 001°01'0 0.2
2017-Aug-28 17:30N 45°37' W 001°01'3 5.1
2017-Aug-28 17:00N 45°36' W 001°05'25 1.5
2017-Aug-28 00:01N 46°01' W 001°10'0 0.0
2017-Aug-27 23:31N 46°01' W 001°10'8 0.2
2017-Aug-26 09:34N 46°09' W 001°10'0 0.0
2017-Aug-26 09:22N 46°09' W 001°10'0 0.0
2017-Aug-26 08:52N 46°09' W 001°10'0 0.0
2017-Aug-26 08:25N 46°09' W 001°10'0 0.0
2017-Aug-26 07:55N 46°09' W 001°10'0 0.0
2017-Aug-26 07:22N 46°09' W 001°10'0 0.0
2017-Aug-26 06:49N 46°09' W 001°10'0 0.0
2017-Aug-26 06:28N 46°09' W 001°10'0 0.0
2017-Aug-26 05:49N 46°09' W 001°10'0 0.0
2017-Aug-26 05:25N 46°09' W 001°10'0 0.0
2017-Aug-26 04:58N 46°09' W 001°10'0 0.0
2017-Aug-26 04:22N 46°09' W 001°10'0 0.0
2017-Aug-26 03:58N 46°09' W 001°10'0 0.0
2017-Aug-26 03:28N 46°09' W 001°10'0 0.0
2017-Aug-26 02:58N 46°09' W 001°10'0 0.0
2017-Aug-26 02:16N 46°09' W 001°10'0 0.0
2017-Aug-26 00:49N 46°09' W 001°10'0 0.0
2017-Aug-26 00:22N 46°09' W 001°10'0 0.0
2017-Aug-25 23:58N 46°09' W 001°10'0 0.0
2017-Aug-25 23:22N 46°09' W 001°10'0 0.0
2017-Aug-25 22:55N 46°09' W 001°10'0 0.0
2017-Aug-25 22:28N 46°09' W 001°10'0 0.0
2017-Aug-25 21:49N 46°09' W 001°10'0 0.0
2017-Aug-25 21:25N 46°09' W 001°10'0 0.0
2017-Aug-25 20:58N 46°09' W 001°10'0 0.0
2017-Aug-25 20:16N 46°09' W 001°10'0 0.0
2017-Aug-25 19:43N 46°09' W 001°10'4 0.5
2017-Aug-25 11:12N 46°09' W 001°16'0 0.0
2017-Aug-25 11:00N 46°09' W 001°16'20 0.5
2017-Aug-23 14:40N 46°22' W 001°39'4 6.6
2017-Aug-23 14:00N 46°25' W 001°43'3 6.2
2017-Aug-23 13:30N 46°27' W 001°46'4 7.0
2017-Aug-23 13:00N 46°28' W 001°51'3 6.2
2017-Aug-23 12:30N 46°28' W 001°56'3 5.8
2017-Aug-23 11:57N 46°28' W 002°00'  
2017-Aug-20 13:00N 47°25' W 002°37'3 6.0
2017-Aug-20 12:30N 47°28' W 002°38'3 5.3
2017-Aug-20 12:00N 47°31' W 002°38'1 1.7
2017-Aug-20 11:30N 47°31' W 002°37'0 0.0
2017-Aug-20 11:00N 47°31' W 002°37'0 0.0
2017-Aug-20 10:27N 47°31' W 002°37'0 0.0
2017-Aug-20 10:00N 47°31' W 002°37'0 0.0
2017-Aug-20 09:24N 47°31' W 002°37'0 0.0
2017-Aug-20 09:00N 47°31' W 002°37'0 0.0
2017-Aug-20 08:30N 47°31' W 002°37'0 0.0
2017-Aug-20 08:00N 47°31' W 002°37'0 0.0
2017-Aug-20 07:30N 47°31' W 002°37'0 0.0
2017-Aug-20 07:00N 47°31' W 002°37'0 0.0
2017-Aug-20 06:30N 47°31' W 002°37'0 0.0
2017-Aug-20 06:00N 47°31' W 002°37'0 0.0
2017-Aug-20 05:30N 47°31' W 002°37'0 0.0
2017-Aug-20 05:00N 47°31' W 002°37'0 0.0
2017-Aug-20 04:30N 47°31' W 002°37'0 0.0
2017-Aug-20 04:00N 47°31' W 002°37'0 0.0
2017-Aug-20 03:27N 47°31' W 002°37'0 0.0
2017-Aug-20 03:00N 47°31' W 002°37'0 0.0
2017-Aug-20 02:30N 47°31' W 002°37'0 0.0
2017-Aug-20 02:00N 47°31' W 002°37'0 0.0
2017-Aug-20 01:30N 47°31' W 002°37'0 0.0
2017-Aug-20 01:00N 47°31' W 002°37'0 0.0
2017-Aug-20 00:30N 47°31' W 002°37'0 0.0
2017-Aug-20 00:00N 47°31' W 002°37'0 0.0
2017-Aug-19 23:30N 47°31' W 002°37'0 0.0
2017-Aug-19 22:54N 47°31' W 002°37'0 0.0
2017-Aug-19 22:30N 47°31' W 002°37'0 0.0
2017-Aug-19 22:00N 47°31' W 002°37'0 0.0
2017-Aug-19 21:30N 47°31' W 002°37'0 0.0
2017-Aug-19 20:57N 47°31' W 002°37'0 0.0
2017-Aug-19 20:30N 47°31' W 002°37'0 0.0
2017-Aug-19 19:57N 47°31' W 002°37'0 0.0
2017-Aug-19 19:30N 47°31' W 002°37'0 0.0
2017-Aug-19 19:00N 47°31' W 002°37'0 0.0
2017-Aug-19 18:30N 47°31' W 002°37'0 0.0
2017-Aug-19 18:00N 47°31' W 002°37'0 0.0
2017-Aug-19 17:30N 47°31' W 002°37'0 0.0
2017-Aug-19 17:00N 47°31' W 002°37'0 0.0
2017-Aug-19 16:30N 47°31' W 002°37'0 0.0
2017-Aug-19 16:00N 47°31' W 002°37'0 0.0
2017-Aug-19 15:30N 47°31' W 002°37'0 0.0
2017-Aug-19 15:00N 47°31' W 002°37'  
Track history (hours):
 
Tides and Currents Weather Stations Pressure Air Temp Water Temp Dewpoint Dewpoint Depression Visibility Wind Speed Wind Dir Waves Ship Positions

Igloo

Last reported at 2017-Aug-29 06:24 UTC. Time now 2017-Sep-19 20:49 UTC.
Position N 45°33' W 000°58'.
Warning: this ship's position is 21 days out of date.

Length 12 m.

Type: Sailing vessel. MMSI: 227264430.

Date/timePositionNaut miles runAvg speedWind from/ knotsBaromVisibWave heightAir tempDewpointWater temp
2017-Aug-29 06:24N 45°33' W 000°58'3 8.0
2017-Aug-29 06:00N 45°36' W 001°01'1 2.5
2017-Aug-29 05:25N 45°37' W 001°01'0 0.0
2017-Aug-29 04:46N 45°37' W 001°01'0 0.0
2017-Aug-29 04:25N 45°37' W 001°01'0 0.0
2017-Aug-29 03:58N 45°37' W 001°01'0 0.0
2017-Aug-29 03:28N 45°37' W 001°01'0 0.0
2017-Aug-29 02:55N 45°37' W 001°01'0 0.0
2017-Aug-29 02:28N 45°37' W 001°01'0 0.0
2017-Aug-29 01:58N 45°37' W 001°01'0 0.0
2017-Aug-29 01:28N 45°37' W 001°01'0 0.0
2017-Aug-29 00:55N 45°37' W 001°01'0 0.0
2017-Aug-29 00:28N 45°37' W 001°01'0 0.0
2017-Aug-28 23:55N 45°37' W 001°01'0 0.0
2017-Aug-28 23:28N 45°37' W 001°01'0 0.0
2017-Aug-28 22:52N 45°37' W 001°01'0 0.0
2017-Aug-28 22:22N 45°37' W 001°01'0 0.0
2017-Aug-28 21:58N 45°37' W 001°01'0 0.0
2017-Aug-28 21:25N 45°37' W 001°01'0 0.0
2017-Aug-28 20:55N 45°37' W 001°01'0 0.0
2017-Aug-28 20:28N 45°37' W 001°01'0 0.0
2017-Aug-28 19:40N 45°37' W 001°01'0 0.0
2017-Aug-28 19:16N 45°37' W 001°01'0 0.0
2017-Aug-28 18:58N 45°37' W 001°01'0 0.0
2017-Aug-28 18:25N 45°37' W 001°01'0 0.0
2017-Aug-28 17:58N 45°37' W 001°01'0 0.2
2017-Aug-28 17:30N 45°37' W 001°01'3 5.1
2017-Aug-28 17:00N 45°36' W 001°05'25 1.5
2017-Aug-28 00:01N 46°01' W 001°10'0 0.0
2017-Aug-27 23:31N 46°01' W 001°10'8 0.2
2017-Aug-26 09:34N 46°09' W 001°10'0 0.0
2017-Aug-26 09:22N 46°09' W 001°10'0 0.0
2017-Aug-26 08:52N 46°09' W 001°10'0 0.0
2017-Aug-26 08:25N 46°09' W 001°10'0 0.0
2017-Aug-26 07:55N 46°09' W 001°10'0 0.0
2017-Aug-26 07:22N 46°09' W 001°10'0 0.0
2017-Aug-26 06:49N 46°09' W 001°10'0 0.0
2017-Aug-26 06:28N 46°09' W 001°10'0 0.0
2017-Aug-26 05:49N 46°09' W 001°10'0 0.0
2017-Aug-26 05:25N 46°09' W 001°10'0 0.0
2017-Aug-26 04:58N 46°09' W 001°10'0 0.0
2017-Aug-26 04:22N 46°09' W 001°10'0 0.0
2017-Aug-26 03:58N 46°09' W 001°10'0 0.0
2017-Aug-26 03:28N 46°09' W 001°10'0 0.0
2017-Aug-26 02:58N 46°09' W 001°10'0 0.0
2017-Aug-26 02:16N 46°09' W 001°10'0 0.0
2017-Aug-26 00:49N 46°09' W 001°10'0 0.0
2017-Aug-26 00:22N 46°09' W 001°10'0 0.0
2017-Aug-25 23:58N 46°09' W 001°10'0 0.0
2017-Aug-25 23:22N 46°09' W 001°10'0 0.0
2017-Aug-25 22:55N 46°09' W 001°10'0 0.0
2017-Aug-25 22:28N 46°09' W 001°10'0 0.0
2017-Aug-25 21:49N 46°09' W 001°10'0 0.0
2017-Aug-25 21:25N 46°09' W 001°10'0 0.0
2017-Aug-25 20:58N 46°09' W 001°10'0 0.0
2017-Aug-25 20:16N 46°09' W 001°10'0 0.0
2017-Aug-25 19:43N 46°09' W 001°10'4 0.5
2017-Aug-25 11:12N 46°09' W 001°16'0 0.0
2017-Aug-25 11:00N 46°09' W 001°16'20 0.5
2017-Aug-23 14:40N 46°22' W 001°39'4 6.6
2017-Aug-23 14:00N 46°25' W 001°43'3 6.2
2017-Aug-23 13:30N 46°27' W 001°46'4 7.0
2017-Aug-23 13:00N 46°28' W 001°51'3 6.2
2017-Aug-23 12:30N 46°28' W 001°56'3 5.8
2017-Aug-23 11:57N 46°28' W 002°00'  
2017-Aug-20 13:00N 47°25' W 002°37'3 6.0
2017-Aug-20 12:30N 47°28' W 002°38'3 5.3
2017-Aug-20 12:00N 47°31' W 002°38'1 1.7
2017-Aug-20 11:30N 47°31' W 002°37'0 0.0
2017-Aug-20 11:00N 47°31' W 002°37'0 0.0
2017-Aug-20 10:27N 47°31' W 002°37'0 0.0
2017-Aug-20 10:00N 47°31' W 002°37'0 0.0
2017-Aug-20 09:24N 47°31' W 002°37'0 0.0
2017-Aug-20 09:00N 47°31' W 002°37'0 0.0
2017-Aug-20 08:30N 47°31' W 002°37'0 0.0
2017-Aug-20 08:00N 47°31' W 002°37'0 0.0
2017-Aug-20 07:30N 47°31' W 002°37'0 0.0
2017-Aug-20 07:00N 47°31' W 002°37'0 0.0
2017-Aug-20 06:30N 47°31' W 002°37'0 0.0
2017-Aug-20 06:00N 47°31' W 002°37'0 0.0
2017-Aug-20 05:30N 47°31' W 002°37'0 0.0
2017-Aug-20 05:00N 47°31' W 002°37'0 0.0
2017-Aug-20 04:30N 47°31' W 002°37'0 0.0
2017-Aug-20 04:00N 47°31' W 002°37'0 0.0
2017-Aug-20 03:27N 47°31' W 002°37'0 0.0
2017-Aug-20 03:00N 47°31' W 002°37'0 0.0
2017-Aug-20 02:30N 47°31' W 002°37'0 0.0
2017-Aug-20 02:00N 47°31' W 002°37'0 0.0
2017-Aug-20 01:30N 47°31' W 002°37'0 0.0
2017-Aug-20 01:00N 47°31' W 002°37'0 0.0
2017-Aug-20 00:30N 47°31' W 002°37'0 0.0
2017-Aug-20 00:00N 47°31' W 002°37'0 0.0
2017-Aug-19 23:30N 47°31' W 002°37'0 0.0
2017-Aug-19 22:54N 47°31' W 002°37'0 0.0
2017-Aug-19 22:30N 47°31' W 002°37'0 0.0
2017-Aug-19 22:00N 47°31' W 002°37'0 0.0
2017-Aug-19 21:30N 47°31' W 002°37'0 0.0
2017-Aug-19 20:57N 47°31' W 002°37'0 0.0
2017-Aug-19 20:30N 47°31' W 002°37'0 0.0
2017-Aug-19 19:57N 47°31' W 002°37'0 0.0
2017-Aug-19 19:30N 47°31' W 002°37'0 0.0
2017-Aug-19 19:00N 47°31' W 002°37'0 0.0
2017-Aug-19 18:30N 47°31' W 002°37'0 0.0
2017-Aug-19 18:00N 47°31' W 002°37'0 0.0
2017-Aug-19 17:30N 47°31' W 002°37'0 0.0
2017-Aug-19 17:00N 47°31' W 002°37'0 0.0
2017-Aug-19 16:30N 47°31' W 002°37'0 0.0
2017-Aug-19 16:00N 47°31' W 002°37'0 0.0
2017-Aug-19 15:30N 47°31' W 002°37'0 0.0
2017-Aug-19 15:00N 47°31' W 002°37'  

Dump ship's entire track history